sensor_id;sensor_type;location;lat;lon;timestamp;pressure;altitude;pressure_sealevel;temperature;humidity
50636;BME280;36598;46.054;11.130;2022-08-30T00:00:14;99372.31;;;24.82;61.36
50636;BME280;36598;46.054;11.130;2022-08-30T00:02:59;99367.66;;;24.68;61.74
50636;BME280;36598;46.054;11.130;2022-08-30T00:05:25;99365.28;;;24.61;61.82
50636;BME280;36598;46.054;11.130;2022-08-30T00:07:50;99370.66;;;24.53;62.54
50636;BME280;36598;46.054;11.130;2022-08-30T00:10:15;99374.34;;;24.28;63.44
50636;BME280;36598;46.054;11.130;2022-08-30T00:12:41;99375.63;;;24.27;63.66
50636;BME280;36598;46.054;11.130;2022-08-30T00:15:08;99375.88;;;23.86;64.42
50636;BME280;36598;46.054;11.130;2022-08-30T00:17:33;99375.38;;;24.24;62.73
50636;BME280;36598;46.054;11.130;2022-08-30T00:19:58;99370.06;;;24.38;62.29
50636;BME280;36598;46.054;11.130;2022-08-30T00:22:24;99369.09;;;24.52;61.98
50636;BME280;36598;46.054;11.130;2022-08-30T00:24:49;99367.09;;;24.58;61.21
50636;BME280;36598;46.054;11.130;2022-08-30T00:27:14;99362.22;;;24.70;60.48
50636;BME280;36598;46.054;11.130;2022-08-30T00:29:40;99359.09;;;24.51;60.89
50636;BME280;36598;46.054;11.130;2022-08-30T00:32:05;99358.00;;;24.37;61.32
50636;BME280;36598;46.054;11.130;2022-08-30T00:34:31;99358.44;;;23.93;63.05
50636;BME280;36598;46.054;11.130;2022-08-30T00:36:56;99360.19;;;24.28;62.20
50636;BME280;36598;46.054;11.130;2022-08-30T00:39:21;99348.41;;;24.29;62.28
50636;BME280;36598;46.054;11.130;2022-08-30T00:41:46;99349.94;;;24.30;61.93
50636;BME280;36598;46.054;11.130;2022-08-30T00:44:12;99345.16;;;24.42;61.74
50636;BME280;36598;46.054;11.130;2022-08-30T00:46:38;99355.28;;;24.22;61.85
50636;BME280;36598;46.054;11.130;2022-08-30T00:49:05;99351.69;;;24.22;62.15
50636;BME280;36598;46.054;11.130;2022-08-30T00:51:31;99354.97;;;24.15;62.59
50636;BME280;36598;46.054;11.130;2022-08-30T00:53:57;99346.31;;;24.24;63.02
50636;BME280;36598;46.054;11.130;2022-08-30T00:56:23;99348.06;;;23.79;64.93
50636;BME280;36598;46.054;11.130;2022-08-30T00:58:51;99349.59;;;24.11;64.04
50636;BME280;36598;46.054;11.130;2022-08-30T01:01:17;99343.53;;;24.30;63.31
50636;BME280;36598;46.054;11.130;2022-08-30T01:03:43;99339.22;;;24.40;63.36
50636;BME280;36598;46.054;11.130;2022-08-30T01:06:09;99341.81;;;24.43;63.52
50636;BME280;36598;46.054;11.130;2022-08-30T01:08:34;99347.47;;;24.49;63.28
50636;BME280;36598;46.054;11.130;2022-08-30T01:11:00;99350.34;;;24.55;63.31
50636;BME280;36598;46.054;11.130;2022-08-30T01:13:26;99343.41;;;24.50;63.59
50636;BME280;36598;46.054;11.130;2022-08-30T01:15:52;99346.94;;;24.45;63.63
50636;BME280;36598;46.054;11.130;2022-08-30T01:18:17;99351.34;;;24.46;63.41
50636;BME280;36598;46.054;11.130;2022-08-30T01:21:26;99348.34;;;24.23;64.69
50636;BME280;36598;46.054;11.130;2022-08-30T01:23:32;99350.38;;;24.17;64.88
50636;BME280;36598;46.054;11.130;2022-08-30T01:25:58;99355.19;;;24.43;63.90
50636;BME280;36598;46.054;11.130;2022-08-30T01:28:25;99358.25;;;24.45;63.37
50636;BME280;36598;46.054;11.130;2022-08-30T01:30:51;99358.19;;;24.34;63.97
50636;BME280;36598;46.054;11.130;2022-08-30T01:33:17;99359.66;;;24.23;64.73
50636;BME280;36598;46.054;11.130;2022-08-30T01:38:16;99359.28;;;23.99;65.55
50636;BME280;36598;46.054;11.130;2022-08-30T01:40:42;99353.34;;;23.97;65.55
50636;BME280;36598;46.054;11.130;2022-08-30T01:43:07;99354.59;;;23.90;65.78
50636;BME280;36598;46.054;11.130;2022-08-30T01:45:34;99358.09;;;23.80;65.36
50636;BME280;36598;46.054;11.130;2022-08-30T01:47:59;99360.19;;;23.85;65.24
50636;BME280;36598;46.054;11.130;2022-08-30T01:50:24;99362.56;;;23.92;65.12
50636;BME280;36598;46.054;11.130;2022-08-30T01:52:50;99362.63;;;24.03;64.56
50636;BME280;36598;46.054;11.130;2022-08-30T01:55:15;99366.56;;;24.17;64.02
50636;BME280;36598;46.054;11.130;2022-08-30T01:57:40;99362.13;;;24.05;64.06
50636;BME280;36598;46.054;11.130;2022-08-30T02:00:06;99364.72;;;23.77;64.68
50636;BME280;36598;46.054;11.130;2022-08-30T02:02:33;99373.56;;;23.32;66.05
50636;BME280;36598;46.054;11.130;2022-08-30T02:04:58;99386.69;;;23.35;67.22
50636;BME280;36598;46.054;11.130;2022-08-30T02:07:23;99387.59;;;23.47;67.04
50636;BME280;36598;46.054;11.130;2022-08-30T02:09:49;99385.34;;;23.57;66.76
50636;BME280;36598;46.054;11.130;2022-08-30T02:12:15;99382.97;;;23.76;66.57
50636;BME280;36598;46.054;11.130;2022-08-30T02:14:41;99382.31;;;23.60;67.62
50636;BME280;36598;46.054;11.130;2022-08-30T02:17:07;99396.91;;;23.59;68.29
50636;BME280;36598;46.054;11.130;2022-08-30T02:19:32;99402.50;;;23.01;71.67
50636;BME280;36598;46.054;11.130;2022-08-30T02:21:58;99406.00;;;22.75;73.84
50636;BME280;36598;46.054;11.130;2022-08-30T02:24:23;99408.88;;;22.81;73.96
50636;BME280;36598;46.054;11.130;2022-08-30T02:26:49;99403.44;;;22.78;75.06
50636;BME280;36598;46.054;11.130;2022-08-30T02:29:14;99404.88;;;23.08;74.16
50636;BME280;36598;46.054;11.130;2022-08-30T02:31:39;99409.09;;;22.57;78.40
50636;BME280;36598;46.054;11.130;2022-08-30T02:34:05;99413.03;;;22.45;80.86
50636;BME280;36598;46.054;11.130;2022-08-30T02:36:30;99434.06;;;22.29;82.30
50636;BME280;36598;46.054;11.130;2022-08-30T02:38:55;99469.00;;;22.52;82.29
50636;BME280;36598;46.054;11.130;2022-08-30T02:41:21;99480.25;;;22.02;88.34
50636;BME280;36598;46.054;11.130;2022-08-30T02:43:48;99481.59;;;22.07;85.60
50636;BME280;36598;46.054;11.130;2022-08-30T02:46:14;99477.03;;;22.09;84.67
50636;BME280;36598;46.054;11.130;2022-08-30T02:48:39;99477.81;;;21.65;83.78
50636;BME280;36598;46.054;11.130;2022-08-30T02:51:05;99476.44;;;21.46;83.43
50636;BME280;36598;46.054;11.130;2022-08-30T02:53:31;99478.13;;;21.67;80.98
50636;BME280;36598;46.054;11.130;2022-08-30T02:55:56;99489.78;;;22.19;81.55
50636;BME280;36598;46.054;11.130;2022-08-30T02:58:22;99495.50;;;21.81;79.61
50636;BME280;36598;46.054;11.130;2022-08-30T03:00:48;99485.31;;;22.28;80.53
50636;BME280;36598;46.054;11.130;2022-08-30T03:03:13;99489.28;;;22.36;79.59
50636;BME280;36598;46.054;11.130;2022-08-30T03:05:38;99489.38;;;22.27;80.15
50636;BME280;36598;46.054;11.130;2022-08-30T03:08:04;99479.38;;;22.25;79.52
50636;BME280;36598;46.054;11.130;2022-08-30T03:10:29;99473.91;;;22.37;79.80
50636;BME280;36598;46.054;11.130;2022-08-30T03:12:55;99473.59;;;22.49;79.35
50636;BME280;36598;46.054;11.130;2022-08-30T03:15:20;99470.81;;;22.70;79.42
50636;BME280;36598;46.054;11.130;2022-08-30T03:17:49;99480.63;;;22.74;79.14
50636;BME280;36598;46.054;11.130;2022-08-30T03:20:15;99485.31;;;22.63;79.10
50636;BME280;36598;46.054;11.130;2022-08-30T03:22:40;99509.28;;;22.38;79.48
50636;BME280;36598;46.054;11.130;2022-08-30T03:25:06;99516.78;;;21.82;82.57
50636;BME280;36598;46.054;11.130;2022-08-30T03:27:31;99511.16;;;22.11;81.32
50636;BME280;36598;46.054;11.130;2022-08-30T03:29:56;99527.84;;;22.00;81.58
50636;BME280;36598;46.054;11.130;2022-08-30T03:32:22;99529.25;;;21.27;83.64
50636;BME280;36598;46.054;11.130;2022-08-30T03:34:47;99524.47;;;21.18;84.52
50636;BME280;36598;46.054;11.130;2022-08-30T03:37:13;99519.59;;;21.19;84.82
50636;BME280;36598;46.054;11.130;2022-08-30T03:39:38;99513.63;;;21.50;83.95
50636;BME280;36598;46.054;11.130;2022-08-30T03:42:03;99510.47;;;21.87;82.18
50636;BME280;36598;46.054;11.130;2022-08-30T03:44:29;99505.28;;;21.70;83.96
50636;BME280;36598;46.054;11.130;2022-08-30T03:46:54;99491.88;;;22.10;82.98
50636;BME280;36598;46.054;11.130;2022-08-30T03:49:19;99477.31;;;22.26;82.66
50636;BME280;36598;46.054;11.130;2022-08-30T03:51:45;99466.22;;;22.37;81.53
50636;BME280;36598;46.054;11.130;2022-08-30T03:54:10;99462.56;;;22.02;82.76
50636;BME280;36598;46.054;11.130;2022-08-30T03:56:35;99464.69;;;22.36;81.86
50636;BME280;36598;46.054;11.130;2022-08-30T03:59:01;99478.84;;;22.42;82.12
50636;BME280;36598;46.054;11.130;2022-08-30T04:01:26;99485.97;;;22.08;83.22
50636;BME280;36598;46.054;11.130;2022-08-30T04:03:52;99501.91;;;21.96;82.50
50636;BME280;36598;46.054;11.130;2022-08-30T04:06:17;99498.97;;;22.05;81.73
50636;BME280;36598;46.054;11.130;2022-08-30T04:08:42;99496.09;;;21.85;81.88
50636;BME280;36598;46.054;11.130;2022-08-30T04:11:09;99501.72;;;21.85;82.04
50636;BME280;36598;46.054;11.130;2022-08-30T04:13:37;99502.59;;;21.76;83.33
50636;BME280;36598;46.054;11.130;2022-08-30T04:16:03;99509.66;;;22.01;82.26
50636;BME280;36598;46.054;11.130;2022-08-30T04:18:28;99502.09;;;21.63;82.73
50636;BME280;36598;46.054;11.130;2022-08-30T04:20:53;99501.78;;;21.61;84.24
50636;BME280;36598;46.054;11.130;2022-08-30T04:23:19;99505.47;;;21.67;83.31
50636;BME280;36598;46.054;11.130;2022-08-30T04:25:44;99502.66;;;21.67;83.56
50636;BME280;36598;46.054;11.130;2022-08-30T04:28:10;99506.72;;;21.51;84.25
50636;BME280;36598;46.054;11.130;2022-08-30T04:30:39;99504.00;;;21.42;85.30
50636;BME280;36598;46.054;11.130;2022-08-30T04:33:05;99504.09;;;21.62;84.83
50636;BME280;36598;46.054;11.130;2022-08-30T04:35:30;99508.47;;;21.24;86.63
50636;BME280;36598;46.054;11.130;2022-08-30T04:37:55;99503.06;;;21.74;84.00
50636;BME280;36598;46.054;11.130;2022-08-30T04:40:21;99508.22;;;21.76;84.21
50636;BME280;36598;46.054;11.130;2022-08-30T04:42:47;99516.78;;;22.11;82.77
50636;BME280;36598;46.054;11.130;2022-08-30T04:45:13;99515.72;;;21.94;84.07
50636;BME280;36598;46.054;11.130;2022-08-30T04:47:40;99515.22;;;22.10;82.15
50636;BME280;36598;46.054;11.130;2022-08-30T04:50:06;99518.81;;;21.96;82.58
50636;BME280;36598;46.054;11.130;2022-08-30T04:52:31;99521.66;;;22.25;81.64
50636;BME280;36598;46.054;11.130;2022-08-30T04:54:57;99526.00;;;22.27;82.18
50636;BME280;36598;46.054;11.130;2022-08-30T04:57:22;99526.50;;;22.40;81.64
50636;BME280;36598;46.054;11.130;2022-08-30T04:59:48;99524.66;;;22.37;81.99
50636;BME280;36598;46.054;11.130;2022-08-30T05:02:13;99515.44;;;22.36;80.98
50636;BME280;36598;46.054;11.130;2022-08-30T05:04:39;99519.13;;;21.98;81.68
50636;BME280;36598;46.054;11.130;2022-08-30T05:07:28;99507.66;;;22.31;80.66
50636;BME280;36598;46.054;11.130;2022-08-30T05:09:53;99518.72;;;22.35;81.23
50636;BME280;36598;46.054;11.130;2022-08-30T05:12:18;99518.94;;;22.31;81.46
50636;BME280;36598;46.054;11.130;2022-08-30T05:14:44;99509.59;;;22.40;80.55
50636;BME280;36598;46.054;11.130;2022-08-30T05:17:09;99514.44;;;22.39;80.31
50636;BME280;36598;46.054;11.130;2022-08-30T05:19:34;99514.81;;;22.47;79.90
50636;BME280;36598;46.054;11.130;2022-08-30T05:22:00;99511.03;;;22.35;80.00
50636;BME280;36598;46.054;11.130;2022-08-30T05:24:25;99524.34;;;22.35;80.42
50636;BME280;36598;46.054;11.130;2022-08-30T05:26:50;99516.16;;;22.52;79.61
50636;BME280;36598;46.054;11.130;2022-08-30T05:29:16;99526.97;;;22.53;79.19
50636;BME280;36598;46.054;11.130;2022-08-30T05:31:42;99533.38;;;22.54;78.56
50636;BME280;36598;46.054;11.130;2022-08-30T05:34:07;99533.97;;;22.58;78.88
50636;BME280;36598;46.054;11.130;2022-08-30T05:36:33;99539.56;;;21.69;82.01
50636;BME280;36598;46.054;11.130;2022-08-30T05:38:59;99545.56;;;22.15;80.84
50636;BME280;36598;46.054;11.130;2022-08-30T05:41:25;99540.66;;;22.01;80.64
50636;BME280;36598;46.054;11.130;2022-08-30T05:43:53;99545.75;;;21.97;80.81
50636;BME280;36598;46.054;11.130;2022-08-30T05:46:19;99529.41;;;21.71;81.52
50636;BME280;36598;46.054;11.130;2022-08-30T05:48:46;99528.44;;;22.04;80.47
50636;BME280;36598;46.054;11.130;2022-08-30T05:51:18;99531.97;;;22.29;79.96
50636;BME280;36598;46.054;11.130;2022-08-30T05:53:45;99526.41;;;22.34;80.51
50636;BME280;36598;46.054;11.130;2022-08-30T05:56:11;99537.22;;;22.36;81.07
50636;BME280;36598;46.054;11.130;2022-08-30T05:58:37;99528.66;;;22.65;78.32
50636;BME280;36598;46.054;11.130;2022-08-30T06:01:02;99521.16;;;22.92;77.33
50636;BME280;36598;46.054;11.130;2022-08-30T06:03:28;99532.25;;;22.95;77.72
50636;BME280;36598;46.054;11.130;2022-08-30T06:05:53;99525.97;;;23.06;76.77
50636;BME280;36598;46.054;11.130;2022-08-30T06:08:19;99526.50;;;22.90;77.75
50636;BME280;36598;46.054;11.130;2022-08-30T06:10:44;99523.69;;;23.10;75.72
50636;BME280;36598;46.054;11.130;2022-08-30T06:13:10;99521.59;;;23.26;74.41
50636;BME280;36598;46.054;11.130;2022-08-30T06:15:36;99537.13;;;23.36;74.32
50636;BME280;36598;46.054;11.130;2022-08-30T06:18:02;99535.06;;;23.57;73.41
50636;BME280;36598;46.054;11.130;2022-08-30T06:20:27;99532.91;;;23.72;72.79
50636;BME280;36598;46.054;11.130;2022-08-30T06:22:53;99530.81;;;23.67;72.88
50636;BME280;36598;46.054;11.130;2022-08-30T06:25:18;99539.22;;;23.82;71.66
50636;BME280;36598;46.054;11.130;2022-08-30T06:27:43;99530.44;;;23.80;71.82
50636;BME280;36598;46.054;11.130;2022-08-30T06:30:09;99528.84;;;23.73;72.41
50636;BME280;36598;46.054;11.130;2022-08-30T06:32:35;99531.66;;;23.73;72.41
50636;BME280;36598;46.054;11.130;2022-08-30T06:35:00;99525.91;;;23.88;71.92
50636;BME280;36598;46.054;11.130;2022-08-30T06:37:26;99524.50;;;24.04;71.96
50636;BME280;36598;46.054;11.130;2022-08-30T06:39:52;99534.13;;;23.86;72.09
50636;BME280;36598;46.054;11.130;2022-08-30T06:42:17;99527.66;;;23.85;72.36
50636;BME280;36598;46.054;11.130;2022-08-30T06:44:54;99524.13;;;23.44;73.52
50636;BME280;36598;46.054;11.130;2022-08-30T06:47:19;99532.78;;;23.81;72.28
50636;BME280;36598;46.054;11.130;2022-08-30T06:49:44;99519.84;;;24.32;70.89
50636;BME280;36598;46.054;11.130;2022-08-30T06:52:09;99530.47;;;27.01;60.80
50636;BME280;36598;46.054;11.130;2022-08-30T06:54:35;99524.59;;;28.34;55.50
50636;BME280;36598;46.054;11.130;2022-08-30T06:57:00;99524.47;;;29.49;52.13
50636;BME280;36598;46.054;11.130;2022-08-30T06:59:25;99530.00;;;29.41;51.95
50636;BME280;36598;46.054;11.130;2022-08-30T07:01:51;99532.16;;;28.26;54.61
50636;BME280;36598;46.054;11.130;2022-08-30T07:04:16;99537.53;;;28.40;54.39
50636;BME280;36598;46.054;11.130;2022-08-30T07:06:41;99549.63;;;26.78;59.13
50636;BME280;36598;46.054;11.130;2022-08-30T07:09:06;99536.69;;;26.99;59.08
50636;BME280;36598;46.054;11.130;2022-08-30T07:11:33;99533.91;;;26.54;60.61
50636;BME280;36598;46.054;11.130;2022-08-30T07:13:59;99535.97;;;26.54;60.58
50636;BME280;36598;46.054;11.130;2022-08-30T07:16:25;99523.78;;;26.92;59.54
50636;BME280;36598;46.054;11.130;2022-08-30T07:18:50;99538.31;;;26.44;60.66
50636;BME280;36598;46.054;11.130;2022-08-30T07:21:30;99532.38;;;26.48;61.18
50636;BME280;36598;46.054;11.130;2022-08-30T07:23:57;99533.38;;;26.73;60.55
50636;BME280;36598;46.054;11.130;2022-08-30T07:26:27;99521.00;;;26.19;61.97
50636;BME280;36598;46.054;11.130;2022-08-30T07:28:52;99520.22;;;26.30;61.18
50636;BME280;36598;46.054;11.130;2022-08-30T07:31:18;99520.47;;;26.38;60.35
50636;BME280;36598;46.054;11.130;2022-08-30T07:33:44;99518.94;;;26.14;61.09
50636;BME280;36598;46.054;11.130;2022-08-30T07:36:10;99519.78;;;25.38;63.33
50636;BME280;36598;46.054;11.130;2022-08-30T07:38:35;99514.56;;;24.77;64.85
50636;BME280;36598;46.054;11.130;2022-08-30T07:41:01;99504.91;;;24.26;66.71
50636;BME280;36598;46.054;11.130;2022-08-30T07:43:29;99507.44;;;24.50;65.70
50636;BME280;36598;46.054;11.130;2022-08-30T07:45:59;99506.94;;;24.94;64.80
50636;BME280;36598;46.054;11.130;2022-08-30T07:48:25;99508.34;;;25.98;61.88
50636;BME280;36598;46.054;11.130;2022-08-30T07:50:50;99503.94;;;26.76;59.36
50636;BME280;36598;46.054;11.130;2022-08-30T07:53:15;99501.09;;;26.81;59.15
50636;BME280;36598;46.054;11.130;2022-08-30T07:55:40;99497.56;;;26.47;58.49
50636;BME280;36598;46.054;11.130;2022-08-30T07:58:06;99493.53;;;27.17;57.17
50636;BME280;36598;46.054;11.130;2022-08-30T08:00:31;99490.47;;;26.99;57.17
50636;BME280;36598;46.054;11.130;2022-08-30T08:02:56;99485.81;;;27.01;57.57
50636;BME280;36598;46.054;11.130;2022-08-30T08:05:21;99481.72;;;27.49;56.52
50636;BME280;36598;46.054;11.130;2022-08-30T08:07:47;99490.72;;;28.06;54.76
50636;BME280;36598;46.054;11.130;2022-08-30T08:10:12;99487.63;;;27.57;55.95
50636;BME280;36598;46.054;11.130;2022-08-30T08:12:38;99485.16;;;27.89;54.90
50636;BME280;36598;46.054;11.130;2022-08-30T08:15:04;99475.72;;;27.64;55.24
50636;BME280;36598;46.054;11.130;2022-08-30T08:17:30;99477.69;;;28.16;53.74
50636;BME280;36598;46.054;11.130;2022-08-30T08:19:55;99476.69;;;28.92;52.40
50636;BME280;36598;46.054;11.130;2022-08-30T08:22:20;99477.31;;;29.48;50.90
50636;BME280;36598;46.054;11.130;2022-08-30T08:24:45;99474.69;;;28.63;51.33
50636;BME280;36598;46.054;11.130;2022-08-30T08:27:11;99477.16;;;29.40;49.83
50636;BME280;36598;46.054;11.130;2022-08-30T08:29:36;99471.97;;;27.86;53.29
50636;BME280;36598;46.054;11.130;2022-08-30T08:32:01;99469.94;;;28.95;50.42
50636;BME280;36598;46.054;11.130;2022-08-30T08:34:27;99466.50;;;28.24;51.81
50636;BME280;36598;46.054;11.130;2022-08-30T08:36:52;99466.16;;;28.33;51.59
50636;BME280;36598;46.054;11.130;2022-08-30T08:39:18;99465.94;;;27.59;52.22
50636;BME280;36598;46.054;11.130;2022-08-30T08:42:11;99458.06;;;28.42;50.41
50636;BME280;36598;46.054;11.130;2022-08-30T08:44:37;99461.78;;;28.32;50.91
50636;BME280;36598;46.054;11.130;2022-08-30T08:47:52;99461.22;;;28.63;50.54
50636;BME280;36598;46.054;11.130;2022-08-30T08:49:52;99450.22;;;28.73;49.84
50636;BME280;36598;46.054;11.130;2022-08-30T08:52:30;99450.44;;;29.62;48.25
50636;BME280;36598;46.054;11.130;2022-08-30T08:55:18;99447.28;;;30.30;46.73
50636;BME280;36598;46.054;11.130;2022-08-30T08:57:45;99442.97;;;30.23;46.02
50636;BME280;36598;46.054;11.130;2022-08-30T09:00:11;99444.53;;;30.24;45.03
50636;BME280;36598;46.054;11.130;2022-08-30T09:02:54;99436.13;;;30.13;45.79
50636;BME280;36598;46.054;11.130;2022-08-30T09:05:21;99429.63;;;30.71;44.74
50636;BME280;36598;46.054;11.130;2022-08-30T09:07:51;99437.19;;;30.42;44.75
50636;BME280;36598;46.054;11.130;2022-08-30T09:10:20;99431.38;;;30.61;45.58
50636;BME280;36598;46.054;11.130;2022-08-30T09:12:46;99436.81;;;30.19;46.35
50636;BME280;36598;46.054;11.130;2022-08-30T09:15:16;99429.91;;;29.07;47.53
50636;BME280;36598;46.054;11.130;2022-08-30T09:17:47;99440.19;;;29.34;47.92
50636;BME280;36598;46.054;11.130;2022-08-30T09:20:13;99430.00;;;29.77;47.32
50636;BME280;36598;46.054;11.130;2022-08-30T09:22:47;99426.88;;;30.65;44.70
50636;BME280;36598;46.054;11.130;2022-08-30T09:30:25;99416.16;;;30.13;45.50
50636;BME280;36598;46.054;11.130;2022-08-30T09:32:50;99408.84;;;30.44;44.52
50636;BME280;36598;46.054;11.130;2022-08-30T09:35:31;99401.25;;;29.75;46.08
50636;BME280;36598;46.054;11.130;2022-08-30T09:38:06;99402.81;;;30.48;44.84
50636;BME280;36598;46.054;11.130;2022-08-30T09:42:58;99400.97;;;30.90;43.34
50636;BME280;36598;46.054;11.130;2022-08-30T09:45:27;99395.84;;;30.75;44.08
50636;BME280;36598;46.054;11.130;2022-08-30T09:47:53;99395.03;;;30.75;44.25
50636;BME280;36598;46.054;11.130;2022-08-30T09:50:18;99385.72;;;31.35;43.28
50636;BME280;36598;46.054;11.130;2022-08-30T10:00:24;99379.41;;;30.23;44.36
50636;BME280;36598;46.054;11.130;2022-08-30T10:10:10;99368.22;;;31.59;41.87
50636;BME280;36598;46.054;11.130;2022-08-30T10:15:23;99368.56;;;31.56;41.73
50636;BME280;36598;46.054;11.130;2022-08-30T10:22:51;99364.00;;;31.53;41.07
50636;BME280;36598;46.054;11.130;2022-08-30T10:25:23;99344.59;;;32.01;39.77
50636;BME280;36598;46.054;11.130;2022-08-30T10:30:19;99347.16;;;32.40;38.31
50636;BME280;36598;46.054;11.130;2022-08-30T10:35:15;99344.34;;;32.48;37.46
50636;BME280;36598;46.054;11.130;2022-08-30T10:37:43;99344.22;;;31.41;38.82
50636;BME280;36598;46.054;11.130;2022-08-30T10:40:33;99337.69;;;31.96;39.03
50636;BME280;36598;46.054;11.130;2022-08-30T10:43:33;99341.38;;;29.88;41.27
50636;BME280;36598;46.054;11.130;2022-08-30T10:46:06;99345.59;;;30.53;41.81
50636;BME280;36598;46.054;11.130;2022-08-30T10:48:40;99332.22;;;31.09;40.43
50636;BME280;36598;46.054;11.130;2022-08-30T10:51:07;99332.13;;;31.14;40.96
50636;BME280;36598;46.054;11.130;2022-08-30T10:53:42;99317.97;;;30.96;40.86
50636;BME280;36598;46.054;11.130;2022-08-30T10:56:10;99318.28;;;31.60;38.70
50636;BME280;36598;46.054;11.130;2022-08-30T10:58:38;99318.09;;;31.24;39.20
50636;BME280;36598;46.054;11.130;2022-08-30T11:13:44;99307.25;;;31.23;37.66
50636;BME280;36598;46.054;11.130;2022-08-30T11:16:11;99310.16;;;31.44;38.67
50636;BME280;36598;46.054;11.130;2022-08-30T11:18:49;99301.41;;;30.94;37.54
50636;BME280;36598;46.054;11.130;2022-08-30T11:23:40;99298.06;;;30.42;39.26
50636;BME280;36598;46.054;11.130;2022-08-30T11:26:07;99308.03;;;30.09;40.27
50636;BME280;36598;46.054;11.130;2022-08-30T11:33:39;99283.94;;;31.81;38.30
50636;BME280;36598;46.054;11.130;2022-08-30T11:36:06;99271.53;;;31.79;38.26
50636;BME280;36598;46.054;11.130;2022-08-30T11:51:53;99241.66;;;30.22;42.54
50636;BME280;36598;46.054;11.130;2022-08-30T11:59:19;99215.97;;;31.46;40.27
50636;BME280;36598;46.054;11.130;2022-08-30T12:01:46;99226.16;;;31.83;41.10
50636;BME280;36598;46.054;11.130;2022-08-30T12:04:13;99221.50;;;31.72;39.82
50636;BME280;36598;46.054;11.130;2022-08-30T12:06:53;99213.47;;;31.91;39.80
50636;BME280;36598;46.054;11.130;2022-08-30T12:10:05;99213.19;;;31.53;40.28
50636;BME280;36598;46.054;11.130;2022-08-30T12:12:10;99209.69;;;30.84;41.20
50636;BME280;36598;46.054;11.130;2022-08-30T12:14:54;99204.50;;;31.66;40.27
50636;BME280;36598;46.054;11.130;2022-08-30T12:17:25;99200.78;;;31.30;41.27
50636;BME280;36598;46.054;11.130;2022-08-30T12:20:14;99202.03;;;31.00;41.71
50636;BME280;36598;46.054;11.130;2022-08-30T12:22:40;99194.75;;;30.44;42.29
50636;BME280;36598;46.054;11.130;2022-08-30T12:25:12;99193.03;;;30.75;42.62
50636;BME280;36598;46.054;11.130;2022-08-30T12:27:39;99181.56;;;30.88;42.44
50636;BME280;36598;46.054;11.130;2022-08-30T12:30:05;99174.91;;;30.73;42.54
50636;BME280;36598;46.054;11.130;2022-08-30T12:32:32;99183.66;;;30.54;42.54
50636;BME280;36598;46.054;11.130;2022-08-30T12:34:58;99174.06;;;30.04;43.68
50636;BME280;36598;46.054;11.130;2022-08-30T12:37:26;99168.00;;;30.34;43.45
50636;BME280;36598;46.054;11.130;2022-08-30T12:40:08;99155.63;;;30.52;42.95
50636;BME280;36598;46.054;11.130;2022-08-30T12:42:38;99163.94;;;30.63;42.28
50636;BME280;36598;46.054;11.130;2022-08-30T12:45:12;99161.25;;;30.44;42.99
50636;BME280;36598;46.054;11.130;2022-08-30T12:47:42;99159.38;;;30.47;43.61
50636;BME280;36598;46.054;11.130;2022-08-30T12:50:11;99161.28;;;30.31;43.69
50636;BME280;36598;46.054;11.130;2022-08-30T12:52:41;99151.91;;;29.97;44.17
50636;BME280;36598;46.054;11.130;2022-08-30T12:55:15;99152.22;;;30.06;44.18
50636;BME280;36598;46.054;11.130;2022-08-30T12:57:42;99154.66;;;30.02;43.48
50636;BME280;36598;46.054;11.130;2022-08-30T13:00:22;99135.31;;;30.22;44.01
50636;BME280;36598;46.054;11.130;2022-08-30T13:02:54;99147.28;;;29.54;45.67
50636;BME280;36598;46.054;11.130;2022-08-30T13:10:47;99133.19;;;29.61;45.40
50636;BME280;36598;46.054;11.130;2022-08-30T13:13:12;99135.09;;;29.13;46.63
50636;BME280;36598;46.054;11.130;2022-08-30T13:15:50;99134.81;;;29.43;45.77
50636;BME280;36598;46.054;11.130;2022-08-30T13:18:28;99127.78;;;29.31;45.77
50636;BME280;36598;46.054;11.130;2022-08-30T13:21:18;99130.16;;;29.14;46.75
50636;BME280;36598;46.054;11.130;2022-08-30T13:23:45;99119.13;;;29.37;45.96
50636;BME280;36598;46.054;11.130;2022-08-30T13:26:10;99128.75;;;29.20;46.44
50636;BME280;36598;46.054;11.130;2022-08-30T13:28:50;99128.41;;;29.24;46.29
50636;BME280;36598;46.054;11.130;2022-08-30T13:31:15;99131.94;;;28.85;47.16
50636;BME280;36598;46.054;11.130;2022-08-30T13:33:41;99131.69;;;29.02;46.66
50636;BME280;36598;46.054;11.130;2022-08-30T13:36:09;99121.97;;;29.50;45.81
50636;BME280;36598;46.054;11.130;2022-08-30T13:38:34;99113.41;;;29.37;46.09
50636;BME280;36598;46.054;11.130;2022-08-30T13:41:00;99119.56;;;29.41;46.27
50636;BME280;36598;46.054;11.130;2022-08-30T13:43:25;99124.38;;;29.33;46.29
50636;BME280;36598;46.054;11.130;2022-08-30T13:45:50;99119.22;;;29.44;46.20
50636;BME280;36598;46.054;11.130;2022-08-30T13:48:16;99115.41;;;29.55;45.42
50636;BME280;36598;46.054;11.130;2022-08-30T13:50:41;99115.34;;;30.08;45.23
50636;BME280;36598;46.054;11.130;2022-08-30T13:53:07;99112.72;;;29.97;45.05
50636;BME280;36598;46.054;11.130;2022-08-30T13:55:35;99107.09;;;29.57;45.51
50636;BME280;36598;46.054;11.130;2022-08-30T13:58:01;99106.25;;;29.97;44.42
50636;BME280;36598;46.054;11.130;2022-08-30T14:00:26;99105.94;;;30.00;44.84
50636;BME280;36598;46.054;11.130;2022-08-30T14:02:52;99102.72;;;29.56;45.89
50636;BME280;36598;46.054;11.130;2022-08-30T14:05:23;99091.06;;;29.81;45.46
50636;BME280;36598;46.054;11.130;2022-08-30T14:07:52;99099.41;;;29.65;45.82
50636;BME280;36598;46.054;11.130;2022-08-30T14:10:17;99093.91;;;29.14;47.27
50636;BME280;36598;46.054;11.130;2022-08-30T14:12:43;99088.53;;;29.24;46.86